createdAt,value
2022-08-17T00:00:36.893Z,49.27
2022-08-17T00:01:25.574Z,49.41
2022-08-17T00:02:26.799Z,49.71
2022-08-17T00:03:23.471Z,50.02
2022-08-17T00:05:23.451Z,50.18
2022-08-17T00:06:23.473Z,50.19
2022-08-17T00:07:23.460Z,50.36
2022-08-17T00:08:23.463Z,50.19
2022-08-17T00:09:23.489Z,50.15
2022-08-17T00:10:23.479Z,50.12
2022-08-17T00:11:23.474Z,50.06
2022-08-17T00:12:40.985Z,50.02
2022-08-17T00:13:23.487Z,50.35
2022-08-17T00:14:23.465Z,50.63
2022-08-17T00:15:23.485Z,51.10
2022-08-17T00:16:55.440Z,51.24
2022-08-17T00:17:23.493Z,51.43
2022-08-17T00:19:01.433Z,51.33
2022-08-17T00:19:23.502Z,51.31
2022-08-17T00:22:31.864Z,51.42
2022-08-17T00:23:23.509Z,51.42
2022-08-17T00:24:23.521Z,51.36
2022-08-17T00:25:24.808Z,51.35
2022-08-17T00:26:43.999Z,51.52
2022-08-17T00:27:23.537Z,51.42
2022-08-17T00:28:24.908Z,51.37
2022-08-17T00:29:23.535Z,51.37
2022-08-17T00:30:23.542Z,51.15
2022-08-17T00:31:23.570Z,51.00
2022-08-17T00:33:15.709Z,50.89
2022-08-17T00:33:23.829Z,50.89
2022-08-17T00:34:23.562Z,50.89
2022-08-17T00:35:23.566Z,50.89
2022-08-17T00:36:23.547Z,50.61
2022-08-17T00:37:23.538Z,50.47
2022-08-17T00:39:23.713Z,50.41
2022-08-17T00:40:24.568Z,50.41
2022-08-17T00:41:23.570Z,50.58
2022-08-17T00:42:26.435Z,50.55
2022-08-17T00:43:23.649Z,50.66
2022-08-17T00:44:23.585Z,50.66
2022-08-17T00:45:23.563Z,50.49
2022-08-17T00:46:23.569Z,50.68
2022-08-17T00:47:23.561Z,50.82
2022-08-17T00:49:23.597Z,50.99
2022-08-17T00:50:23.607Z,51.33
2022-08-17T00:51:23.596Z,51.50
2022-08-17T00:52:23.604Z,51.64
2022-08-17T00:53:23.590Z,51.64
2022-08-17T00:54:23.598Z,51.70
2022-08-17T00:55:23.579Z,51.94
2022-08-17T00:56:23.607Z,51.93
2022-08-17T00:57:23.631Z,51.93
2022-08-17T00:58:28.688Z,51.92
2022-08-17T00:59:23.588Z,51.73
2022-08-17T01:00:23.612Z,51.55
2022-08-17T01:01:23.677Z,51.13
2022-08-17T01:02:23.607Z,51.00
2022-08-17T01:03:25.762Z,50.79
2022-08-17T01:04:23.607Z,50.79
2022-08-17T01:05:23.650Z,50.64
2022-08-17T01:07:23.620Z,50.49
2022-08-17T01:08:23.644Z,50.41
2022-08-17T01:09:23.647Z,50.35
2022-08-17T01:10:59.551Z,50.35
2022-08-17T01:11:23.615Z,50.30
2022-08-17T01:12:23.611Z,50.02
2022-08-17T01:14:23.623Z,49.86
2022-08-17T01:17:23.701Z,49.90
2022-08-17T01:18:23.637Z,49.90
2022-08-17T01:19:23.637Z,49.91
2022-08-17T01:20:23.658Z,49.81
2022-08-17T01:21:23.644Z,49.67
2022-08-17T01:22:23.648Z,49.48
2022-08-17T01:23:23.680Z,49.53
2022-08-17T01:24:23.693Z,49.13
2022-08-17T01:25:23.672Z,49.13
2022-08-17T01:27:23.677Z,49.13
2022-08-17T01:28:52.688Z,48.79
2022-08-17T01:29:23.674Z,48.67
2022-08-17T01:30:57.314Z,48.57
2022-08-17T01:32:23.683Z,48.23
2022-08-17T01:33:23.670Z,48.30
2022-08-17T01:34:23.689Z,48.32
2022-08-17T01:36:23.697Z,48.09
2022-08-17T01:37:23.735Z,47.97
2022-08-17T01:38:27.226Z,47.90
2022-08-17T01:41:23.707Z,47.83
2022-08-17T01:43:23.737Z,48.20
2022-08-17T01:44:23.728Z,48.20
2022-08-17T01:45:23.751Z,48.41
2022-08-17T01:46:23.740Z,48.98
2022-08-17T01:47:23.718Z,49.31
2022-08-17T01:48:23.726Z,49.46
2022-08-17T01:49:23.723Z,49.65
2022-08-17T01:50:23.733Z,49.93
2022-08-17T01:51:23.729Z,49.79
2022-08-17T01:52:23.757Z,49.93
2022-08-17T01:53:23.750Z,50.12
2022-08-17T01:54:23.751Z,50.06
2022-08-17T01:55:27.218Z,49.95
2022-08-17T01:56:23.739Z,49.67
2022-08-17T01:57:23.744Z,49.55
2022-08-17T01:58:23.761Z,49.47
2022-08-17T01:59:23.782Z,48.65
2022-08-17T02:00:23.767Z,48.65
2022-08-17T02:01:23.850Z,48.39
2022-08-17T02:02:30.888Z,48.21
2022-08-17T02:03:23.781Z,47.93
2022-08-17T02:04:23.776Z,47.95
2022-08-17T02:06:28.233Z,48.09
2022-08-17T02:07:26.912Z,48.21
2022-08-17T02:08:32.516Z,48.29
2022-08-17T02:09:25.938Z,48.33
2022-08-17T02:10:23.811Z,48.56
2022-08-17T02:11:23.826Z,48.55
2022-08-17T02:12:39.206Z,48.55
2022-08-17T02:13:23.829Z,48.47
2022-08-17T02:14:23.791Z,48.47
2022-08-17T02:15:23.806Z,48.31
2022-08-17T02:16:23.801Z,48.22
2022-08-17T02:17:26.053Z,48.27
2022-08-17T02:18:23.803Z,48.27
2022-08-17T02:19:23.832Z,48.71
2022-08-17T02:20:42.502Z,48.71
2022-08-17T02:21:23.797Z,48.77
2022-08-17T02:22:23.807Z,48.97
2022-08-17T02:23:23.811Z,48.98
2022-08-17T02:25:01.151Z,49.07
2022-08-17T02:25:23.805Z,49.08
2022-08-17T02:26:25.806Z,49.34
2022-08-17T02:27:23.826Z,49.44
2022-08-17T02:28:23.840Z,49.75
2022-08-17T02:29:23.841Z,50.08
2022-08-17T02:30:59.600Z,50.27
2022-08-17T02:31:23.827Z,50.45
2022-08-17T02:32:27.161Z,50.56
2022-08-17T02:33:23.882Z,50.97
2022-08-17T02:34:23.859Z,50.97
2022-08-17T02:35:23.852Z,51.07
2022-08-17T02:36:27.309Z,50.69
2022-08-17T02:37:23.848Z,50.69
2022-08-17T02:38:23.862Z,50.33
2022-08-17T02:39:24.056Z,50.45
2022-08-17T02:40:36.047Z,50.26
2022-08-17T02:41:23.863Z,50.18
2022-08-17T02:42:23.901Z,50.08
2022-08-17T02:43:23.897Z,49.94
2022-08-17T02:44:35.504Z,49.94
2022-08-17T02:45:23.876Z,49.05
2022-08-17T02:46:23.898Z,48.72
2022-08-17T02:47:23.904Z,48.06
2022-08-17T02:48:31.043Z,48.06
2022-08-17T02:49:23.897Z,47.74
2022-08-17T02:50:23.886Z,47.58
2022-08-17T02:51:23.879Z,47.45
2022-08-17T02:52:42.959Z,47.64
2022-08-17T02:53:23.884Z,47.38
2022-08-17T02:54:40.687Z,47.15
2022-08-17T02:55:23.889Z,47.15
2022-08-17T02:56:23.916Z,47.01
2022-08-17T02:57:23.903Z,47.01
2022-08-17T02:58:35.578Z,46.71
2022-08-17T03:02:23.923Z,46.70
2022-08-17T03:03:23.917Z,46.82
2022-08-17T03:05:23.936Z,46.78
2022-08-17T03:06:23.918Z,46.80
2022-08-17T03:07:23.933Z,46.83
2022-08-17T03:08:23.926Z,46.90
2022-08-17T03:09:23.935Z,46.91
2022-08-17T03:10:23.952Z,46.98
2022-08-17T03:11:23.954Z,46.95
2022-08-17T03:12:23.954Z,47.27
2022-08-17T03:13:23.937Z,47.40
2022-08-17T03:14:26.108Z,47.62
2022-08-17T03:15:23.957Z,47.67
2022-08-17T03:16:23.949Z,47.67
2022-08-17T03:17:24.003Z,47.74
2022-08-17T03:18:24.896Z,47.77
2022-08-17T03:19:23.962Z,47.77
2022-08-17T03:20:23.969Z,47.80
2022-08-17T03:21:23.972Z,47.85
2022-08-17T03:22:36.385Z,47.86
2022-08-17T03:23:25.581Z,48.28
2022-08-17T03:24:28.670Z,48.28
2022-08-17T03:25:23.999Z,48.39
2022-08-17T03:26:23.988Z,48.39
2022-08-17T03:27:23.994Z,48.16
2022-08-17T03:28:24.010Z,48.14
2022-08-17T03:29:23.989Z,48.14
2022-08-17T03:30:23.993Z,48.02
2022-08-17T03:31:26.388Z,47.89
2022-08-17T03:32:24.003Z,47.89
2022-08-17T03:33:23.999Z,47.98
2022-08-17T03:34:24.066Z,47.83
2022-08-17T03:35:24.034Z,47.83
2022-08-17T03:36:23.993Z,47.82
2022-08-17T03:37:24.033Z,47.78
2022-08-17T03:39:24.138Z,47.70
2022-08-17T03:40:55.890Z,47.70
2022-08-17T03:41:24.008Z,47.67
2022-08-17T03:42:31.792Z,47.62
2022-08-17T03:43:24.065Z,47.63
2022-08-17T03:44:24.033Z,47.39
2022-08-17T03:45:24.031Z,47.58
2022-08-17T03:47:24.046Z,47.72
2022-08-17T03:48:24.092Z,47.80
2022-08-17T03:50:24.063Z,47.71
2022-08-17T03:51:24.065Z,47.71
2022-08-17T03:52:24.074Z,47.69
2022-08-17T03:53:24.051Z,47.62
2022-08-17T03:54:24.047Z,47.59
2022-08-17T03:56:24.079Z,47.27
2022-08-17T03:57:24.085Z,47.39
2022-08-17T03:58:24.064Z,47.39
2022-08-17T04:00:24.061Z,47.54
2022-08-17T04:01:24.089Z,47.56
2022-08-17T04:02:24.080Z,47.52
2022-08-17T04:03:24.088Z,47.47
2022-08-17T04:04:27.589Z,47.43
2022-08-17T04:05:24.093Z,47.33
2022-08-17T04:06:24.127Z,47.34
2022-08-17T04:07:24.107Z,47.34
2022-08-17T04:08:26.550Z,47.26
2022-08-17T04:09:24.102Z,47.26
2022-08-17T04:10:26.380Z,47.27
2022-08-17T04:11:24.109Z,47.15
2022-08-17T04:12:24.099Z,47.08
2022-08-17T04:13:25.488Z,47.12
2022-08-17T04:14:24.099Z,47.12
2022-08-17T04:15:24.101Z,47.13
2022-08-17T04:17:24.256Z,47.26
2022-08-17T04:18:24.136Z,47.33
2022-08-17T04:19:24.168Z,47.38
2022-08-17T04:21:24.118Z,47.34
2022-08-17T04:22:31.794Z,47.37
2022-08-17T04:23:24.121Z,47.39
2022-08-17T04:24:24.177Z,47.36
2022-08-17T04:26:53.441Z,47.44
2022-08-17T04:27:24.162Z,47.47
2022-08-17T04:28:24.139Z,47.44
2022-08-17T04:29:24.142Z,47.41
2022-08-17T04:30:24.137Z,47.47
2022-08-17T04:31:24.147Z,47.42
2022-08-17T04:33:03.925Z,47.26
2022-08-17T04:33:24.179Z,47.26
2022-08-17T04:35:24.167Z,47.06
2022-08-17T04:36:24.181Z,47.05
2022-08-17T04:37:24.180Z,46.81
2022-08-17T04:38:24.190Z,46.81
2022-08-17T04:39:24.235Z,46.77
2022-08-17T04:40:26.050Z,46.71
2022-08-17T04:41:24.175Z,46.61
2022-08-17T04:42:24.189Z,46.62
2022-08-17T04:45:26.751Z,46.41
2022-08-17T04:46:24.203Z,46.41
2022-08-17T04:49:24.186Z,46.38
2022-08-17T04:50:24.199Z,46.24
2022-08-17T04:51:24.214Z,46.48
2022-08-17T04:53:24.199Z,46.53
2022-08-17T04:54:24.219Z,46.80
2022-08-17T04:56:24.242Z,46.88
2022-08-17T04:58:24.233Z,46.93
2022-08-17T04:59:24.248Z,46.98
2022-08-17T05:00:24.248Z,46.98
2022-08-17T05:01:24.703Z,46.96
2022-08-17T05:02:24.244Z,46.94
2022-08-17T05:03:24.250Z,47.04
2022-08-17T05:04:33.857Z,47.02
2022-08-17T05:05:24.239Z,47.00
2022-08-17T05:06:24.278Z,46.95
2022-08-17T05:07:28.338Z,46.97
2022-08-17T05:08:24.261Z,46.77
2022-08-17T05:09:24.416Z,46.93
2022-08-17T05:10:24.269Z,47.19
2022-08-17T05:11:24.279Z,46.91
2022-08-17T05:12:24.286Z,46.67
2022-08-17T05:13:24.267Z,46.67
2022-08-17T05:14:32.744Z,46.45
2022-08-17T05:15:24.265Z,46.39
2022-08-17T05:16:24.277Z,46.39
2022-08-17T05:17:24.268Z,46.39
2022-08-17T05:18:24.572Z,46.49
2022-08-17T05:20:24.304Z,46.72
2022-08-17T05:21:24.285Z,46.72
2022-08-17T05:22:26.918Z,47.11
2022-08-17T05:23:24.274Z,47.11
2022-08-17T05:25:25.558Z,47.58
2022-08-17T05:26:26.781Z,47.58
2022-08-17T05:27:24.291Z,47.25
2022-08-17T05:28:27.402Z,46.76
2022-08-17T05:29:34.305Z,46.76
2022-08-17T05:30:24.305Z,46.37
2022-08-17T05:31:24.295Z,46.25
2022-08-17T05:32:38.771Z,46.10
2022-08-17T05:33:24.322Z,45.92
2022-08-17T05:34:24.308Z,45.73
2022-08-17T05:35:24.322Z,45.76
2022-08-17T05:36:42.949Z,45.46
2022-08-17T05:37:24.319Z,45.68
2022-08-17T05:38:24.325Z,45.75
2022-08-17T05:39:24.358Z,45.85
2022-08-17T05:40:24.328Z,45.94
2022-08-17T05:41:24.324Z,45.77
2022-08-17T05:42:24.337Z,45.97
2022-08-17T05:43:24.341Z,45.62
2022-08-17T05:44:24.335Z,45.46
2022-08-17T05:46:24.397Z,45.18
2022-08-17T05:47:24.363Z,45.18
2022-08-17T05:48:39.116Z,45.22
2022-08-17T05:49:24.339Z,45.61
2022-08-17T05:50:27.093Z,46.07
2022-08-17T05:51:24.364Z,46.65
2022-08-17T05:52:24.401Z,47.01
2022-08-17T05:53:24.383Z,47.01
2022-08-17T05:54:24.375Z,47.13
2022-08-17T05:55:24.382Z,47.45
2022-08-17T05:56:29.999Z,47.35
2022-08-17T05:57:24.403Z,46.93
2022-08-17T05:58:24.401Z,46.16
2022-08-17T05:59:27.081Z,46.13
2022-08-17T06:00:30.304Z,46.80
2022-08-17T06:01:24.518Z,46.95
2022-08-17T06:02:24.405Z,46.60
2022-08-17T06:03:24.427Z,45.98
2022-08-17T06:04:24.408Z,45.63
2022-08-17T06:05:24.403Z,45.63
2022-08-17T06:06:25.299Z,45.30
2022-08-17T06:07:24.432Z,45.30
2022-08-17T06:08:24.428Z,45.53
2022-08-17T06:09:28.826Z,45.36
2022-08-17T06:10:25.762Z,44.96
2022-08-17T06:11:24.435Z,44.69
2022-08-17T06:12:24.449Z,44.11
2022-08-17T06:13:24.420Z,44.11
2022-08-17T06:14:24.460Z,43.94
2022-08-17T06:15:24.436Z,43.94
2022-08-17T06:16:33.177Z,43.57
2022-08-17T06:17:24.435Z,43.10
2022-08-17T06:18:24.432Z,42.86
2022-08-17T06:19:24.447Z,43.02
2022-08-17T06:21:26.277Z,43.79
2022-08-17T06:22:24.469Z,44.69
2022-08-17T06:23:24.460Z,44.69
2022-08-17T06:24:24.463Z,45.24
2022-08-17T06:25:24.454Z,45.43
2022-08-17T06:26:27.608Z,45.49
2022-08-17T06:27:24.536Z,45.58
2022-08-17T06:28:24.481Z,45.98
2022-08-17T06:29:24.482Z,46.68
2022-08-17T06:30:24.473Z,46.68
2022-08-17T06:31:24.479Z,47.12
2022-08-17T06:32:24.497Z,48.02
2022-08-17T06:33:24.473Z,48.31
2022-08-17T06:34:24.497Z,48.28
2022-08-17T06:35:27.722Z,48.28
2022-08-17T06:36:27.264Z,47.71
2022-08-17T06:37:24.488Z,47.71
2022-08-17T06:38:38.458Z,47.00
2022-08-17T06:39:24.621Z,46.68
2022-08-17T06:40:24.542Z,45.96
2022-08-17T06:41:24.505Z,45.96
2022-08-17T06:43:02.928Z,44.74
2022-08-17T06:43:24.505Z,44.10
2022-08-17T06:44:43.631Z,44.12
2022-08-17T06:45:24.543Z,44.00
2022-08-17T06:46:24.524Z,44.29
2022-08-17T06:47:28.370Z,43.67
2022-08-17T06:48:24.519Z,43.62
2022-08-17T06:49:24.540Z,43.34
2022-08-17T06:50:24.533Z,42.98
2022-08-17T06:51:24.534Z,42.98
2022-08-17T06:52:42.463Z,42.88
2022-08-17T06:53:24.539Z,42.49
2022-08-17T06:54:24.537Z,42.56
2022-08-17T06:55:24.543Z,42.28
2022-08-17T06:56:24.688Z,42.28
2022-08-17T06:57:24.545Z,41.88
2022-08-17T06:58:24.548Z,42.12
2022-08-17T06:59:24.550Z,42.48
2022-08-17T07:00:24.538Z,42.36
2022-08-17T07:01:24.591Z,42.36
2022-08-17T07:02:29.346Z,41.93
2022-08-17T07:03:24.564Z,41.65
2022-08-17T07:04:24.553Z,41.15
2022-08-17T07:05:24.613Z,40.84
2022-08-17T07:06:24.603Z,41.13
2022-08-17T07:07:24.574Z,41.41
2022-08-17T07:08:29.984Z,41.41
2022-08-17T07:09:24.583Z,40.73
2022-08-17T07:10:24.653Z,41.06
2022-08-17T07:11:24.588Z,41.76
2022-08-17T07:12:24.677Z,42.22
2022-08-17T07:13:27.443Z,42.78
2022-08-17T07:14:24.593Z,42.85
2022-08-17T07:15:24.586Z,42.64
2022-08-17T07:16:24.586Z,42.64
2022-08-17T07:17:46.684Z,42.57
2022-08-17T07:18:24.606Z,41.86
2022-08-17T07:19:24.598Z,41.86
2022-08-17T07:20:24.658Z,40.95
2022-08-17T07:21:26.558Z,39.36
2022-08-17T07:22:24.698Z,38.38
2022-08-17T07:23:24.621Z,38.17
2022-08-17T07:24:26.050Z,37.93
2022-08-17T07:25:24.643Z,37.97
2022-08-17T07:26:24.628Z,37.97
2022-08-17T07:27:24.629Z,37.24
2022-08-17T07:28:24.616Z,37.01
2022-08-17T07:29:24.639Z,37.02
2022-08-17T07:30:24.656Z,36.53
2022-08-17T07:31:24.626Z,36.53
2022-08-17T07:32:24.636Z,37.10
2022-08-17T07:33:24.630Z,37.10
2022-08-17T07:34:24.627Z,36.97
2022-08-17T07:35:24.633Z,37.13
2022-08-17T07:36:29.590Z,37.38
2022-08-17T07:37:24.641Z,37.38
2022-08-17T07:38:26.799Z,37.64
2022-08-17T07:40:24.773Z,37.09
2022-08-17T07:41:24.659Z,37.22
2022-08-17T07:42:24.667Z,37.06
2022-08-17T07:43:24.672Z,36.73
2022-08-17T07:44:24.679Z,36.67
2022-08-17T07:45:24.679Z,36.33
2022-08-17T07:46:24.704Z,36.46
2022-08-17T07:47:24.665Z,36.46
2022-08-17T07:48:24.668Z,36.47
2022-08-17T07:49:24.704Z,36.47
2022-08-17T07:50:27.718Z,36.14
2022-08-17T07:51:24.667Z,36.14
2022-08-17T07:52:48.423Z,35.56
2022-08-17T07:53:24.687Z,35.56
2022-08-17T07:54:24.711Z,34.10
2022-08-17T07:55:24.714Z,34.62
2022-08-17T07:56:24.698Z,34.46
2022-08-17T07:57:29.799Z,34.46
2022-08-17T07:58:24.699Z,34.50
2022-08-17T07:59:24.705Z,34.79
2022-08-17T08:00:32.161Z,34.40
2022-08-17T08:01:24.746Z,34.23
2022-08-17T08:02:26.456Z,33.89
2022-08-17T08:03:26.204Z,33.56
2022-08-17T08:04:37.570Z,32.79
2022-08-17T08:05:49.483Z,32.62
2022-08-17T08:06:24.711Z,32.14
2022-08-17T08:07:24.735Z,32.14
2022-08-17T08:08:24.790Z,32.50
2022-08-17T08:09:24.734Z,32.66
2022-08-17T08:10:24.730Z,32.05
2022-08-17T08:11:24.722Z,32.05
2022-08-17T08:12:24.737Z,31.95
2022-08-17T08:13:24.755Z,32.35
2022-08-17T08:14:28.715Z,32.35
2022-08-17T08:15:24.746Z,32.10
2022-08-17T08:16:24.750Z,31.55
2022-08-17T08:17:24.764Z,31.40
2022-08-17T08:18:54.916Z,31.39
2022-08-17T08:19:24.760Z,31.39
2022-08-17T08:20:51.380Z,31.24
2022-08-17T08:21:24.756Z,31.24
2022-08-17T08:22:24.776Z,30.95
2022-08-17T08:23:24.766Z,30.97
2022-08-17T08:24:24.785Z,30.72
2022-08-17T08:25:24.776Z,30.72
2022-08-17T08:26:24.779Z,30.39
2022-08-17T08:27:27.816Z,29.94
2022-08-17T08:28:24.786Z,29.87
2022-08-17T08:29:24.783Z,30.07
2022-08-17T08:30:24.784Z,29.98
2022-08-17T08:31:24.791Z,29.67
2022-08-17T08:32:24.791Z,29.38
2022-08-17T08:33:24.810Z,28.83
2022-08-17T08:35:24.785Z,28.76
2022-08-17T08:37:15.845Z,28.88
2022-08-17T08:37:33.727Z,28.69
2022-08-17T08:38:24.822Z,28.13
2022-08-17T08:39:24.866Z,28.24
2022-08-17T08:40:24.828Z,28.53
2022-08-17T08:41:24.815Z,28.54
2022-08-17T08:42:24.841Z,28.28
2022-08-17T08:43:25.024Z,29.06
2022-08-17T08:45:00.853Z,29.39
2022-08-17T08:45:24.866Z,29.45
2022-08-17T08:46:24.835Z,29.45
2022-08-17T08:47:24.828Z,29.31
2022-08-17T08:48:52.977Z,29.59
2022-08-17T08:49:45.101Z,29.62
2022-08-17T08:50:37.541Z,29.79
2022-08-17T08:51:24.842Z,30.02
2022-08-17T08:52:24.850Z,30.02
2022-08-17T08:53:24.859Z,29.81
2022-08-17T08:54:26.602Z,30.21
2022-08-17T08:55:24.875Z,30.18
2022-08-17T08:56:24.862Z,30.25
2022-08-17T08:57:30.876Z,30.25
2022-08-17T08:58:31.908Z,30.44
2022-08-17T08:59:24.883Z,29.98
2022-08-17T09:00:24.863Z,29.98
2022-08-17T09:01:24.908Z,29.87
2022-08-17T09:02:24.904Z,29.27
2022-08-17T09:03:36.699Z,29.12
2022-08-17T09:04:28.038Z,29.00
2022-08-17T09:05:24.878Z,28.58
2022-08-17T09:06:32.107Z,28.58
2022-08-17T09:07:24.910Z,28.24
2022-08-17T09:08:24.881Z,28.42
2022-08-17T09:09:24.912Z,28.67
2022-08-17T09:10:24.895Z,28.67
2022-08-17T09:11:24.932Z,27.66
2022-08-17T09:12:24.913Z,27.95
2022-08-17T09:13:24.903Z,27.95
2022-08-17T09:14:28.696Z,28.28
2022-08-17T09:15:24.898Z,28.28
2022-08-17T09:16:24.921Z,28.17
2022-08-17T09:17:24.902Z,28.17
2022-08-17T09:19:02.576Z,27.68
2022-08-17T09:19:24.923Z,27.37
2022-08-17T09:20:28.205Z,27.22
2022-08-17T09:21:24.972Z,27.28
2022-08-17T09:22:24.948Z,27.28
2022-08-17T09:23:24.996Z,27.14
2022-08-17T09:24:24.937Z,27.00
2022-08-17T09:25:24.929Z,26.46
2022-08-17T09:26:24.919Z,26.76
2022-08-17T09:27:24.927Z,26.64
2022-08-17T09:29:24.958Z,26.29
2022-08-17T09:30:24.948Z,26.16
2022-08-17T09:31:26.817Z,26.54
2022-08-17T09:32:24.948Z,26.82
2022-08-17T09:33:24.948Z,27.21
2022-08-17T09:34:28.143Z,27.38
2022-08-17T09:35:24.948Z,27.61
2022-08-17T09:36:24.962Z,26.88
2022-08-17T09:37:24.963Z,27.25
2022-08-17T09:38:27.105Z,26.89
2022-08-17T09:40:24.967Z,27.00
2022-08-17T09:41:28.233Z,27.54
2022-08-17T09:42:24.959Z,27.54
2022-08-17T09:43:24.979Z,28.03
2022-08-17T09:44:24.988Z,28.23
2022-08-17T09:45:24.984Z,28.28
2022-08-17T09:46:24.987Z,28.46
2022-08-17T09:47:25.009Z,28.25
2022-08-17T09:48:24.995Z,28.25
2022-08-17T09:49:25.344Z,28.14
2022-08-17T09:51:04.200Z,27.70
2022-08-17T09:51:25.015Z,27.79
2022-08-17T09:52:24.990Z,27.90
2022-08-17T09:54:38.222Z,27.52
2022-08-17T09:55:25.029Z,27.45
2022-08-17T09:56:25.009Z,27.33
2022-08-17T09:57:30.671Z,27.72
2022-08-17T09:58:29.120Z,27.57
2022-08-17T09:59:25.035Z,27.26
2022-08-17T10:00:25.060Z,27.11
2022-08-17T10:01:25.077Z,26.95
2022-08-17T10:02:25.049Z,26.44
2022-08-17T10:03:25.019Z,26.44
2022-08-17T10:04:29.444Z,26.37
2022-08-17T10:05:25.061Z,25.84
2022-08-17T10:06:25.056Z,26.07
2022-08-17T10:07:25.054Z,26.07
2022-08-17T10:08:25.071Z,26.43
2022-08-17T10:09:25.054Z,26.46
2022-08-17T10:10:25.066Z,26.46
2022-08-17T10:11:33.400Z,27.08
2022-08-17T10:12:29.777Z,27.03
2022-08-17T10:13:25.062Z,27.57
2022-08-17T10:14:37.640Z,27.78
2022-08-17T10:15:25.062Z,27.25
2022-08-17T10:16:25.073Z,27.16
2022-08-17T10:17:25.063Z,26.88
2022-08-17T10:18:32.029Z,26.57
2022-08-17T10:19:25.073Z,26.57
2022-08-17T10:20:25.083Z,26.31
2022-08-17T10:21:25.073Z,26.47
2022-08-17T10:22:35.430Z,26.67
2022-08-17T10:23:25.082Z,26.32
2022-08-17T10:24:25.103Z,25.91
2022-08-17T10:25:37.550Z,25.91
2022-08-17T10:26:25.095Z,25.91
2022-08-17T10:27:25.093Z,24.56
2022-08-17T10:29:25.092Z,24.76
2022-08-17T10:30:25.131Z,25.17
2022-08-17T10:31:35.527Z,25.38
2022-08-17T10:32:25.103Z,24.98
2022-08-17T10:33:25.114Z,24.64
2022-08-17T10:34:25.117Z,24.47
2022-08-17T10:35:25.110Z,24.73
2022-08-17T10:36:25.138Z,24.73
2022-08-17T10:37:25.122Z,25.00
2022-08-17T10:38:25.133Z,24.76
2022-08-17T10:39:25.267Z,25.30
2022-08-17T10:40:26.489Z,25.76
2022-08-17T10:41:25.125Z,25.52
2022-08-17T10:42:32.681Z,24.67
2022-08-17T10:43:25.142Z,24.74
2022-08-17T10:44:39.682Z,24.85
2022-08-17T10:45:25.171Z,24.87
2022-08-17T10:46:30.546Z,25.02
2022-08-17T10:47:25.167Z,24.97
2022-08-17T10:48:18.480Z,24.29
2022-08-17T10:49:02.015Z,24.58
2022-08-17T10:50:01.977Z,24.58
2022-08-17T10:51:01.979Z,24.37
2022-08-17T10:52:01.968Z,24.65
2022-08-17T10:54:01.976Z,24.23
2022-08-17T10:55:01.978Z,24.23
2022-08-17T10:56:01.996Z,24.83
2022-08-17T10:57:02.010Z,24.50
2022-08-17T10:58:01.984Z,24.48
2022-08-17T10:59:02.004Z,25.02
2022-08-17T11:00:02.002Z,24.96
2022-08-17T11:01:02.164Z,25.04
2022-08-17T11:02:02.010Z,24.99
2022-08-17T11:03:02.009Z,25.10
2022-08-17T11:04:02.002Z,25.29
2022-08-17T11:05:02.005Z,25.32
2022-08-17T11:06:02.005Z,24.95
2022-08-17T11:07:02.023Z,25.86
2022-08-17T11:08:02.026Z,25.19
2022-08-17T11:10:02.013Z,25.78
2022-08-17T11:11:02.059Z,25.49
2022-08-17T11:12:02.037Z,25.41
2022-08-17T11:13:02.044Z,25.59
2022-08-17T11:14:02.034Z,25.65
2022-08-17T11:15:02.075Z,25.58
2022-08-17T11:16:07.706Z,25.41
2022-08-17T11:17:03.725Z,24.97
2022-08-17T11:18:02.036Z,24.97
2022-08-17T11:19:02.061Z,24.92
2022-08-17T11:20:02.072Z,24.90
2022-08-17T11:21:02.053Z,25.53
2022-08-17T11:22:02.085Z,25.66
2022-08-17T11:24:02.069Z,25.69
2022-08-17T11:25:02.075Z,25.85
2022-08-17T11:26:02.089Z,25.85
2022-08-17T11:27:02.072Z,25.88
2022-08-17T11:28:02.065Z,25.88
2022-08-17T11:29:02.085Z,26.29
2022-08-17T11:30:02.931Z,26.24
2022-08-17T11:31:02.091Z,26.24
2022-08-17T11:32:02.078Z,26.56
2022-08-17T11:33:02.102Z,27.25
2022-08-17T11:34:02.111Z,27.49
2022-08-17T11:35:02.118Z,27.38
2022-08-17T11:36:02.122Z,27.49
2022-08-17T11:37:02.091Z,27.49
2022-08-17T11:38:02.105Z,27.68
2022-08-17T11:39:02.113Z,27.71
2022-08-17T11:40:02.191Z,28.05
2022-08-17T11:41:02.128Z,28.71
2022-08-17T11:42:02.120Z,28.59
2022-08-17T11:43:02.132Z,28.65
2022-08-17T11:44:02.830Z,28.65
2022-08-17T11:45:02.134Z,29.04
2022-08-17T11:46:02.143Z,28.79
2022-08-17T11:47:02.137Z,28.79
2022-08-17T11:48:26.580Z,28.85
2022-08-17T11:49:02.126Z,29.12
2022-08-17T11:50:02.131Z,29.18
2022-08-17T11:51:02.162Z,29.40
2022-08-17T11:52:02.143Z,29.26
2022-08-17T11:53:02.145Z,29.32
2022-08-17T11:54:31.294Z,29.68
2022-08-17T11:55:24.159Z,29.68
2022-08-17T11:57:02.189Z,29.62
2022-08-17T11:58:02.152Z,29.62
2022-08-17T12:00:02.156Z,29.54
2022-08-17T12:01:02.158Z,29.58
2022-08-17T12:02:02.172Z,29.36
2022-08-17T12:03:02.177Z,29.54
2022-08-17T12:04:02.213Z,29.57
2022-08-17T12:05:02.223Z,29.20
2022-08-17T12:06:02.204Z,28.85
2022-08-17T12:07:02.201Z,28.83
2022-08-17T12:08:02.184Z,28.83
2022-08-17T12:09:02.213Z,28.60
2022-08-17T12:10:02.224Z,28.73
2022-08-17T12:11:02.247Z,28.60
2022-08-17T12:12:12.862Z,28.60
2022-08-17T12:13:02.221Z,28.28
2022-08-17T12:14:02.246Z,28.87
2022-08-17T12:15:11.480Z,28.65
2022-08-17T12:16:02.213Z,28.34
2022-08-17T12:17:02.223Z,28.51
2022-08-17T12:18:02.227Z,28.69
2022-08-17T12:19:02.284Z,28.51
2022-08-17T12:21:02.264Z,28.61
2022-08-17T12:22:02.230Z,28.68
2022-08-17T12:23:02.237Z,28.58
2022-08-17T12:24:02.240Z,28.53
2022-08-17T12:25:02.250Z,28.75
2022-08-17T12:26:02.247Z,28.45
2022-08-17T12:27:02.234Z,28.52
2022-08-17T12:28:05.136Z,28.01
2022-08-17T12:29:02.261Z,28.33
2022-08-17T12:30:02.244Z,27.92
2022-08-17T12:31:04.104Z,27.70
2022-08-17T12:32:02.260Z,27.70
2022-08-17T12:33:02.252Z,28.00
2022-08-17T12:34:02.255Z,27.85
2022-08-17T12:35:02.289Z,27.85
2022-08-17T12:36:02.283Z,28.32
2022-08-17T12:37:02.273Z,28.43
2022-08-17T12:38:02.267Z,28.43
2022-08-17T12:39:14.405Z,28.57
2022-08-17T12:40:02.300Z,28.54
2022-08-17T12:41:02.290Z,28.54
2022-08-17T12:42:02.867Z,28.69
2022-08-17T12:43:02.285Z,28.40
2022-08-17T12:44:02.549Z,28.10
2022-08-17T12:45:02.290Z,28.10
2022-08-17T12:46:13.330Z,27.66
2022-08-17T12:47:02.307Z,27.75
2022-08-17T12:49:02.306Z,27.29
2022-08-17T12:50:02.298Z,27.29
2022-08-17T12:51:02.302Z,27.80
2022-08-17T12:52:02.293Z,27.80
2022-08-17T12:53:02.780Z,28.10
2022-08-17T12:54:02.309Z,28.10
2022-08-17T12:55:02.326Z,27.65
2022-08-17T12:56:02.328Z,27.62
2022-08-17T12:57:02.315Z,27.66
2022-08-17T12:58:02.451Z,27.66
2022-08-17T12:59:02.489Z,27.88
2022-08-17T13:01:02.315Z,27.76
2022-08-17T13:02:02.425Z,27.78
2022-08-17T13:03:02.341Z,28.09
2022-08-17T13:04:02.369Z,28.11
2022-08-17T13:05:02.330Z,28.11
2022-08-17T13:06:02.339Z,28.00
2022-08-17T13:07:02.347Z,28.13
2022-08-17T13:08:04.299Z,27.87
2022-08-17T13:09:02.372Z,28.17
2022-08-17T13:10:02.369Z,28.22
2022-08-17T13:11:02.376Z,28.23
2022-08-17T13:12:02.366Z,28.27
2022-08-17T13:13:02.364Z,28.54
2022-08-17T13:14:02.371Z,28.37
2022-08-17T13:15:02.429Z,28.22
2022-08-17T13:16:02.378Z,28.58
2022-08-17T13:17:02.365Z,28.57
2022-08-17T13:18:02.394Z,28.64
2022-08-17T13:19:02.377Z,28.56
2022-08-17T13:20:02.372Z,29.08
2022-08-17T13:21:02.403Z,28.74
2022-08-17T13:22:04.222Z,29.08
2022-08-17T13:23:02.396Z,29.02
2022-08-17T13:24:02.397Z,28.97
2022-08-17T13:25:02.475Z,28.95
2022-08-17T13:26:02.396Z,29.49
2022-08-17T13:27:02.388Z,29.49
2022-08-17T13:28:02.391Z,29.36
2022-08-17T13:29:02.404Z,29.52
2022-08-17T13:30:02.417Z,29.08
2022-08-17T13:31:02.416Z,29.19
2022-08-17T13:32:04.980Z,29.02
2022-08-17T13:33:04.965Z,29.01
2022-08-17T13:34:02.419Z,28.94
2022-08-17T13:35:14.380Z,28.76
2022-08-17T13:36:02.422Z,29.00
2022-08-17T13:37:02.431Z,29.01
2022-08-17T13:38:02.435Z,29.01
2022-08-17T13:39:02.441Z,28.66
2022-08-17T13:40:02.619Z,28.64
2022-08-17T13:41:02.435Z,28.71
2022-08-17T13:42:02.463Z,28.92
2022-08-17T13:43:02.418Z,28.92
2022-08-17T13:44:02.433Z,29.28
2022-08-17T13:45:35.268Z,29.27
2022-08-17T13:46:02.448Z,29.37